createdAt,value
2023-09-30T00:01:53.246Z,2.22
2023-09-30T00:04:21.301Z,2.38
2023-09-30T00:06:49.273Z,2.08
2023-09-30T00:09:18.676Z,2.00
2023-09-30T00:11:46.780Z,1.98
2023-09-30T00:14:14.782Z,1.83
2023-09-30T00:16:42.814Z,2.00
2023-09-30T00:19:11.212Z,1.48
2023-09-30T00:21:39.306Z,2.50
2023-09-30T00:24:07.527Z,2.17
2023-09-30T00:26:36.843Z,2.40
2023-09-30T00:29:05.904Z,1.92
2023-09-30T00:31:34.004Z,1.70
2023-09-30T00:34:02.041Z,2.60
2023-09-30T00:36:30.136Z,2.38
2023-09-30T00:38:58.230Z,1.63
2023-09-30T00:41:26.713Z,2.35
2023-09-30T00:43:56.206Z,1.98
2023-09-30T00:46:26.968Z,1.98
2023-09-30T00:48:55.202Z,2.05
2023-09-30T00:51:23.417Z,2.42
2023-09-30T00:53:51.590Z,2.30
2023-09-30T00:56:19.512Z,2.22
2023-09-30T00:58:47.536Z,1.70
2023-09-30T01:01:16.911Z,1.90
2023-09-30T01:03:44.950Z,2.20
2023-09-30T01:06:13.321Z,1.70
2023-09-30T01:08:41.282Z,2.10
2023-09-30T01:11:10.082Z,1.70
2023-09-30T01:13:38.762Z,1.92
2023-09-30T01:16:07.107Z,1.63
2023-09-30T01:18:36.455Z,1.60
2023-09-30T01:21:05.840Z,1.52
2023-09-30T01:23:35.151Z,1.98
2023-09-30T01:26:04.320Z,1.73
2023-09-30T01:28:32.611Z,1.45
2023-09-30T01:31:00.646Z,1.73
2023-09-30T01:33:28.617Z,1.67
2023-09-30T01:35:56.656Z,1.60
2023-09-30T01:38:24.585Z,1.80
2023-09-30T01:40:55.432Z,1.48
2023-09-30T01:43:24.523Z,1.95
2023-09-30T01:45:52.506Z,2.08
2023-09-30T01:48:21.039Z,1.85
2023-09-30T01:50:49.160Z,1.30
2023-09-30T01:53:17.357Z,1.90
2023-09-30T01:55:45.559Z,1.60
2023-09-30T01:58:15.028Z,2.00
2023-09-30T02:00:43.107Z,1.45
2023-09-30T02:03:11.156Z,1.83
2023-09-30T02:05:40.517Z,1.77
2023-09-30T02:08:08.463Z,2.38
2023-09-30T02:10:36.423Z,1.50
2023-09-30T02:13:07.141Z,1.75
2023-09-30T02:15:37.079Z,2.00
2023-09-30T02:18:05.527Z,1.60
2023-09-30T02:20:33.633Z,1.65
2023-09-30T02:23:03.614Z,1.77
2023-09-30T02:25:33.177Z,1.98
2023-09-30T02:28:01.565Z,1.65
2023-09-30T02:30:29.452Z,1.10
2023-09-30T02:32:58.776Z,1.48
2023-09-30T02:35:28.024Z,1.25
2023-09-30T02:37:55.996Z,1.42
2023-09-30T02:40:25.838Z,2.10
2023-09-30T02:42:53.899Z,1.40
2023-09-30T02:45:22.022Z,1.77
2023-09-30T02:47:50.005Z,1.55
2023-09-30T02:50:19.415Z,1.38
2023-09-30T02:52:47.439Z,1.00
2023-09-30T02:55:15.464Z,1.27
2023-09-30T02:57:47.888Z,1.42
2023-09-30T03:00:25.104Z,1.55
2023-09-30T03:02:53.926Z,1.67
2023-09-30T03:05:23.405Z,1.02
2023-09-30T03:07:51.946Z,1.60
2023-09-30T03:10:21.627Z,1.63
2023-09-30T03:12:49.855Z,1.75
2023-09-30T03:15:17.991Z,1.40
2023-09-30T03:17:46.037Z,1.45
2023-09-30T03:20:15.790Z,1.70
2023-09-30T03:22:45.106Z,1.25
2023-09-30T03:25:13.636Z,1.60
2023-09-30T03:27:42.192Z,1.48
2023-09-30T03:30:13.076Z,1.55
2023-09-30T03:32:41.132Z,1.45
2023-09-30T03:35:11.760Z,1.95
2023-09-30T03:37:39.761Z,1.35
2023-09-30T03:40:15.698Z,1.38
2023-09-30T03:42:44.934Z,2.30
2023-09-30T03:45:14.641Z,1.90
2023-09-30T03:47:43.221Z,1.10
2023-09-30T03:50:15.819Z,1.55
2023-09-30T03:52:45.970Z,1.23
2023-09-30T03:55:19.240Z,2.00
2023-09-30T03:57:50.312Z,2.13
2023-09-30T04:00:20.783Z,1.83
2023-09-30T04:02:50.690Z,1.45
2023-09-30T04:05:19.808Z,1.55
2023-09-30T04:07:48.057Z,1.45
2023-09-30T04:10:19.263Z,1.50
2023-09-30T04:12:49.623Z,1.52
2023-09-30T04:15:17.720Z,1.88
2023-09-30T04:17:45.821Z,1.52
2023-09-30T04:20:17.770Z,1.40
2023-09-30T04:22:49.518Z,1.70
2023-09-30T04:25:19.196Z,1.15
2023-09-30T04:27:49.397Z,1.70
2023-09-30T04:30:18.114Z,1.83
2023-09-30T04:32:46.149Z,1.80
2023-09-30T04:35:14.158Z,2.40
2023-09-30T04:37:42.112Z,1.98
2023-09-30T04:40:16.373Z,1.80
2023-09-30T04:42:46.165Z,1.73
2023-09-30T04:45:15.896Z,1.95
2023-09-30T04:47:45.661Z,1.80
2023-09-30T04:50:17.429Z,1.70
2023-09-30T04:52:46.471Z,1.70
2023-09-30T04:55:17.187Z,1.58
2023-09-30T04:57:47.194Z,2.22
2023-09-30T05:00:15.652Z,1.98
2023-09-30T05:02:46.143Z,1.73
2023-09-30T05:05:14.321Z,2.60
2023-09-30T05:07:42.306Z,1.52
2023-09-30T05:10:12.853Z,1.60
2023-09-30T05:12:42.044Z,1.70
2023-09-30T05:15:12.141Z,2.20
2023-09-30T05:17:40.205Z,1.90
2023-09-30T05:20:08.708Z,1.52
2023-09-30T05:22:36.644Z,2.35
2023-09-30T05:25:04.704Z,1.63
2023-09-30T05:27:33.642Z,1.50
2023-09-30T05:30:01.770Z,1.92
2023-09-30T05:32:31.852Z,2.33
2023-09-30T05:34:59.972Z,1.27
2023-09-30T05:37:29.177Z,2.90
2023-09-30T05:39:57.120Z,2.28
2023-09-30T05:42:25.052Z,1.90
2023-09-30T05:44:54.326Z,2.92
2023-09-30T05:47:22.358Z,1.58
2023-09-30T05:49:51.642Z,2.08
2023-09-30T05:52:20.363Z,1.50
2023-09-30T05:54:50.124Z,2.35
2023-09-30T05:57:18.240Z,1.60
2023-09-30T05:59:47.174Z,2.40
2023-09-30T06:02:15.232Z,2.45
2023-09-30T06:04:43.340Z,2.78
2023-09-30T06:07:12.814Z,2.83
2023-09-30T06:09:40.835Z,3.38
2023-09-30T06:12:08.808Z,3.00
2023-09-30T06:14:36.847Z,3.15
2023-09-30T06:17:04.766Z,3.50
2023-09-30T06:19:32.829Z,3.35
2023-09-30T06:22:01.148Z,3.58
2023-09-30T06:24:30.435Z,3.25
2023-09-30T06:26:58.378Z,3.03
2023-09-30T06:29:27.939Z,3.03
2023-09-30T06:31:55.873Z,3.60
2023-09-30T06:34:23.818Z,3.25
2023-09-30T06:36:51.819Z,1.55
2023-09-30T06:39:20.392Z,2.25
2023-09-30T06:41:49.923Z,1.90
2023-09-30T06:44:17.870Z,2.75
2023-09-30T06:46:45.892Z,2.13
2023-09-30T06:49:13.872Z,2.75
2023-09-30T06:51:42.016Z,2.67
2023-09-30T06:54:10.023Z,1.63
2023-09-30T06:56:37.918Z,2.25
2023-09-30T06:59:07.582Z,2.67
2023-09-30T07:01:35.552Z,3.22
2023-09-30T07:04:03.701Z,2.40
2023-09-30T07:06:31.749Z,3.83
2023-09-30T07:08:59.830Z,3.15
2023-09-30T07:11:32.112Z,2.92
2023-09-30T07:14:00.052Z,3.72
2023-09-30T07:16:29.374Z,3.42
2023-09-30T07:18:57.571Z,3.50
2023-09-30T07:21:26.035Z,2.75
2023-09-30T07:23:54.104Z,3.42
2023-09-30T07:26:25.255Z,3.72
2023-09-30T07:28:55.276Z,2.90
2023-09-30T07:31:24.586Z,3.20
2023-09-30T07:33:54.520Z,3.00
2023-09-30T07:36:22.702Z,2.40
2023-09-30T07:38:50.754Z,2.22
2023-09-30T07:41:18.817Z,2.72
2023-09-30T07:43:46.792Z,2.85
2023-09-30T07:46:16.687Z,3.25
2023-09-30T07:48:45.100Z,1.98
2023-09-30T07:51:16.360Z,3.45
2023-09-30T07:53:44.467Z,2.92
2023-09-30T07:56:12.397Z,5.75
2023-09-30T07:58:40.305Z,3.35
2023-09-30T08:01:09.777Z,3.10
2023-09-30T08:03:37.886Z,4.95
2023-09-30T08:06:06.039Z,5.43
2023-09-30T08:08:35.337Z,6.63
2023-09-30T08:11:03.304Z,5.15
2023-09-30T08:13:31.266Z,6.32
2023-09-30T08:15:59.270Z,5.38
2023-09-30T08:18:27.320Z,4.65
2023-09-30T08:20:55.240Z,5.75
2023-09-30T08:23:23.246Z,7.13
2023-09-30T08:25:52.535Z,6.10
2023-09-30T08:28:20.528Z,5.30
2023-09-30T08:30:48.663Z,6.63
2023-09-30T08:33:16.731Z,5.80
2023-09-30T08:35:44.755Z,6.80
2023-09-30T08:38:12.671Z,7.40
2023-09-30T08:40:41.391Z,5.93
2023-09-30T08:43:11.367Z,6.82
2023-09-30T08:45:39.450Z,6.35
2023-09-30T08:48:07.808Z,5.68
2023-09-30T08:50:35.762Z,6.28
2023-09-30T08:53:04.948Z,6.32
2023-09-30T08:55:33.332Z,7.47
2023-09-30T08:58:01.980Z,6.70
2023-09-30T09:00:31.358Z,8.02
2023-09-30T09:02:59.569Z,9.07
2023-09-30T09:05:27.665Z,8.50
2023-09-30T09:07:55.612Z,7.63
2023-09-30T09:10:23.480Z,8.20
2023-09-30T09:12:56.622Z,8.18
2023-09-30T09:15:25.757Z,8.18
2023-09-30T09:17:55.647Z,8.75
2023-09-30T09:20:24.397Z,7.55
2023-09-30T09:22:55.228Z,8.43
2023-09-30T09:25:24.240Z,8.52
2023-09-30T09:27:52.498Z,9.50
2023-09-30T09:30:20.979Z,8.35
2023-09-30T09:32:56.742Z,7.80
2023-09-30T09:35:26.518Z,8.60
2023-09-30T09:37:58.260Z,8.10
2023-09-30T09:40:27.018Z,8.43
2023-09-30T09:42:56.074Z,8.05
2023-09-30T09:45:24.968Z,8.20
2023-09-30T09:47:53.906Z,8.10
2023-09-30T09:50:23.783Z,8.55
2023-09-30T09:52:52.201Z,8.00
2023-09-30T09:55:20.420Z,7.93
2023-09-30T09:57:48.667Z,7.43
2023-09-30T10:00:17.453Z,8.95
2023-09-30T10:02:45.482Z,11.18
2023-09-30T10:05:13.585Z,8.93
2023-09-30T10:07:44.414Z,11.77
2023-09-30T10:10:14.569Z,7.53
2023-09-30T10:12:42.601Z,7.40
2023-09-30T10:15:29.296Z,7.28
2023-09-30T10:18:02.059Z,6.43
2023-09-30T10:20:30.200Z,7.28
2023-09-30T10:23:16.921Z,7.07
2023-09-30T10:25:48.276Z,6.57
2023-09-30T10:28:35.192Z,6.00
2023-09-30T10:31:09.966Z,5.90
2023-09-30T10:33:38.004Z,4.90
2023-09-30T10:36:06.035Z,5.82
2023-09-30T10:38:41.372Z,5.63
2023-09-30T10:41:11.047Z,5.13
2023-09-30T10:43:39.164Z,4.53
2023-09-30T10:46:08.466Z,4.50
2023-09-30T10:48:40.352Z,5.25
2023-09-30T10:51:15.565Z,5.43
2023-09-30T10:53:44.055Z,5.20
2023-09-30T10:56:13.392Z,3.90
2023-09-30T10:58:42.077Z,3.80
2023-09-30T11:01:10.105Z,4.00
2023-09-30T11:03:38.372Z,4.00
2023-09-30T11:08:37.309Z,5.40
2023-09-30T11:11:05.888Z,4.43
2023-09-30T11:13:36.674Z,4.65
2023-09-30T11:16:05.669Z,4.07
2023-09-30T11:18:33.787Z,4.07
2023-09-30T11:21:08.464Z,3.42
2023-09-30T11:23:36.537Z,3.42
2023-09-30T11:26:04.706Z,3.30
2023-09-30T11:28:41.076Z,3.47
2023-09-30T11:31:11.670Z,3.35
2023-09-30T11:33:49.462Z,3.30
2023-09-30T11:36:17.393Z,2.83
2023-09-30T11:38:46.688Z,2.47
2023-09-30T11:41:14.603Z,3.08
2023-09-30T11:44:00.602Z,2.67
2023-09-30T11:46:29.472Z,3.25
2023-09-30T11:49:01.906Z,2.60
2023-09-30T11:51:29.890Z,2.97
2023-09-30T11:53:58.845Z,2.47
2023-09-30T11:56:30.421Z,3.17
2023-09-30T11:59:00.158Z,3.72
2023-09-30T12:01:31.983Z,3.45
2023-09-30T12:04:00.789Z,2.72
2023-09-30T12:06:29.086Z,2.50
2023-09-30T12:08:57.811Z,4.15
2023-09-30T12:11:26.996Z,2.92
2023-09-30T12:13:55.050Z,2.58
2023-09-30T12:16:25.267Z,2.80
2023-09-30T12:18:53.310Z,3.25
2023-09-30T12:21:21.918Z,3.05
2023-09-30T12:23:50.087Z,3.28
2023-09-30T12:26:21.112Z,3.05
2023-09-30T12:28:49.305Z,2.72
2023-09-30T12:31:18.542Z,2.70
2023-09-30T12:33:51.580Z,2.42
2023-09-30T12:36:19.830Z,2.25
2023-09-30T12:38:48.328Z,2.67
2023-09-30T12:41:16.442Z,2.78
2023-09-30T12:43:44.437Z,2.78
2023-09-30T12:46:14.498Z,2.60
2023-09-30T12:48:43.050Z,2.42
2023-09-30T12:51:12.508Z,2.45
2023-09-30T12:53:40.442Z,2.53
2023-09-30T12:56:08.344Z,2.88
2023-09-30T12:58:36.515Z,2.40
2023-09-30T13:01:16.020Z,2.75
2023-09-30T13:03:48.533Z,2.50
2023-09-30T13:06:18.197Z,1.90
2023-09-30T13:08:46.234Z,2.70
2023-09-30T13:11:14.461Z,2.50
2023-09-30T13:13:42.426Z,2.00
2023-09-30T13:16:12.633Z,2.30
2023-09-30T13:18:40.922Z,2.33
2023-09-30T13:21:08.886Z,2.72
2023-09-30T13:23:38.138Z,2.47
2023-09-30T13:26:06.079Z,2.22
2023-09-30T13:28:34.008Z,2.20
2023-09-30T13:31:01.976Z,2.55
2023-09-30T13:33:30.012Z,2.72
2023-09-30T13:35:58.051Z,2.60
2023-09-30T13:38:26.009Z,2.80
2023-09-30T13:40:55.475Z,2.75
2023-09-30T13:43:23.355Z,3.10
2023-09-30T13:45:51.769Z,2.90
2023-09-30T13:48:19.920Z,2.70
2023-09-30T13:50:47.920Z,3.22
2023-09-30T13:53:16.494Z,2.75
2023-09-30T13:55:44.450Z,3.55
2023-09-30T13:58:13.994Z,2.63
2023-09-30T14:00:42.524Z,3.03
2023-09-30T14:03:10.743Z,3.17
2023-09-30T14:05:39.693Z,3.22
2023-09-30T14:08:08.747Z,3.85
2023-09-30T14:10:37.199Z,3.35
2023-09-30T14:13:05.549Z,3.95
2023-09-30T14:15:35.000Z,3.53
2023-09-30T14:18:03.286Z,3.08
2023-09-30T14:20:31.366Z,3.92
2023-09-30T14:22:59.337Z,3.17
2023-09-30T14:25:27.540Z,3.17
2023-09-30T14:27:55.607Z,3.65
2023-09-30T14:30:23.552Z,3.25
2023-09-30T14:32:52.956Z,3.00
2023-09-30T14:35:20.991Z,3.13
2023-09-30T14:37:48.929Z,3.05
2023-09-30T14:40:17.144Z,3.00
2023-09-30T14:42:45.236Z,3.42
2023-09-30T14:45:13.112Z,3.53
2023-09-30T14:47:41.075Z,4.25
2023-09-30T14:50:11.519Z,3.60
2023-09-30T14:52:39.511Z,4.45
2023-09-30T14:55:07.803Z,4.15
2023-09-30T14:57:35.887Z,3.63
2023-09-30T15:00:04.686Z,4.35
2023-09-30T15:02:32.689Z,3.83
2023-09-30T15:05:00.667Z,3.83
2023-09-30T15:07:30.089Z,3.30
2023-09-30T15:09:58.112Z,3.33
2023-09-30T15:12:26.819Z,4.55
2023-09-30T15:14:54.956Z,3.97
2023-09-30T15:17:22.911Z,4.65
2023-09-30T15:19:52.089Z,4.50
2023-09-30T15:22:20.078Z,4.00
2023-09-30T15:24:50.528Z,4.00
2023-09-30T15:27:19.329Z,3.67
2023-09-30T15:29:47.328Z,4.15
2023-09-30T15:32:15.273Z,4.25
2023-09-30T15:34:43.325Z,5.53
2023-09-30T15:37:11.310Z,4.40
2023-09-30T15:39:39.676Z,5.43
2023-09-30T15:42:09.984Z,5.97
2023-09-30T15:44:37.989Z,4.90
2023-09-30T15:47:07.049Z,4.32
2023-09-30T15:49:35.112Z,4.32
2023-09-30T15:52:03.138Z,4.18
2023-09-30T15:54:31.298Z,4.10
2023-09-30T15:57:00.175Z,4.60
2023-09-30T15:59:30.150Z,4.57
2023-09-30T16:01:58.226Z,4.40
2023-09-30T16:04:26.397Z,5.15
2023-09-30T16:06:54.414Z,3.95
2023-09-30T16:09:23.038Z,4.20
2023-09-30T16:11:50.995Z,4.03
2023-09-30T16:14:19.009Z,3.72
2023-09-30T16:16:48.299Z,4.03
2023-09-30T16:19:16.807Z,3.88
2023-09-30T16:21:44.699Z,4.28
2023-09-30T16:24:12.712Z,4.38
2023-09-30T16:26:40.609Z,3.88
2023-09-30T16:29:08.533Z,4.15
2023-09-30T16:31:36.949Z,4.90
2023-09-30T16:34:06.491Z,5.28
2023-09-30T16:36:34.541Z,5.15
2023-09-30T16:39:02.500Z,5.22
2023-09-30T16:41:30.414Z,6.25
2023-09-30T16:43:58.627Z,6.05
2023-09-30T16:46:26.675Z,5.30
2023-09-30T16:48:54.653Z,5.63
2023-09-30T16:51:24.066Z,5.93
2023-09-30T16:53:51.973Z,5.13
2023-09-30T16:56:20.028Z,4.43
2023-09-30T16:58:47.974Z,4.43
2023-09-30T17:01:16.025Z,4.75
2023-09-30T17:03:44.041Z,4.25
2023-09-30T17:06:12.289Z,4.30
2023-09-30T17:08:41.581Z,4.38
2023-09-30T17:11:11.380Z,4.10
2023-09-30T17:13:39.346Z,4.65
2023-09-30T17:16:07.548Z,4.97
2023-09-30T17:18:35.941Z,4.40
2023-09-30T17:21:04.481Z,4.03
2023-09-30T17:23:32.350Z,4.07
2023-09-30T17:26:04.860Z,4.15
2023-09-30T17:28:32.777Z,3.80
2023-09-30T17:31:03.471Z,3.70
2023-09-30T17:33:31.459Z,4.75
2023-09-30T17:36:00.624Z,4.95
2023-09-30T17:38:28.580Z,4.75
2023-09-30T17:40:57.003Z,4.30
2023-09-30T17:43:29.375Z,4.43
2023-09-30T17:45:57.636Z,4.05
2023-09-30T17:48:25.672Z,3.95
2023-09-30T17:50:53.636Z,4.03
2023-09-30T17:53:21.660Z,4.80
2023-09-30T17:55:50.070Z,4.25
2023-09-30T17:58:18.129Z,3.72
2023-09-30T18:00:50.760Z,4.15
2023-09-30T18:03:18.743Z,3.90
2023-09-30T18:05:46.712Z,4.18
2023-09-30T18:08:14.761Z,3.30
2023-09-30T18:10:44.189Z,4.00
2023-09-30T18:13:12.193Z,3.85
2023-09-30T18:15:40.160Z,3.65
2023-09-30T18:18:12.412Z,3.83
2023-09-30T18:20:41.004Z,3.72
2023-09-30T18:23:09.000Z,3.42
2023-09-30T18:25:37.513Z,3.80
2023-09-30T18:28:06.037Z,3.33
2023-09-30T18:30:34.417Z,3.30
2023-09-30T18:33:04.026Z,2.88
2023-09-30T18:35:33.473Z,3.53
2023-09-30T18:38:01.547Z,2.80
2023-09-30T18:40:30.094Z,3.40
2023-09-30T18:42:58.317Z,3.30
2023-09-30T18:45:26.380Z,3.40
2023-09-30T18:47:55.441Z,3.13
2023-09-30T18:50:23.525Z,3.38
2023-09-30T18:52:52.793Z,3.08
2023-09-30T18:55:20.765Z,2.65
2023-09-30T18:57:48.782Z,2.63
2023-09-30T19:00:18.480Z,2.80
2023-09-30T19:02:46.698Z,2.53
2023-09-30T19:05:14.891Z,2.95
2023-09-30T19:07:42.840Z,3.30
2023-09-30T19:10:12.331Z,3.40
2023-09-30T19:12:40.801Z,3.45
2023-09-30T19:15:10.741Z,3.08
2023-09-30T19:17:38.781Z,3.42
2023-09-30T19:20:07.909Z,3.28
2023-09-30T19:22:35.815Z,2.97
2023-09-30T19:25:04.489Z,2.78
2023-09-30T19:27:33.744Z,3.00
2023-09-30T19:30:01.792Z,3.20
2023-09-30T19:32:29.675Z,3.10
2023-09-30T19:34:57.671Z,3.35
2023-09-30T19:37:25.600Z,3.65
2023-09-30T19:39:53.518Z,3.50
2023-09-30T19:42:21.737Z,3.47
2023-09-30T19:44:51.074Z,4.10
2023-09-30T19:47:18.969Z,3.90
2023-09-30T19:49:48.008Z,3.58
2023-09-30T19:52:16.004Z,3.05
2023-09-30T19:54:44.087Z,2.88
2023-09-30T19:57:12.127Z,3.45
2023-09-30T19:59:40.783Z,3.42
2023-09-30T20:02:10.279Z,3.22
2023-09-30T20:04:39.078Z,3.30
2023-09-30T20:07:07.589Z,3.50
2023-09-30T20:09:36.306Z,4.25
2023-09-30T20:12:06.143Z,4.45
2023-09-30T20:14:35.143Z,4.85
2023-09-30T20:17:03.689Z,5.18
2023-09-30T20:19:33.079Z,4.70
2023-09-30T20:22:02.338Z,4.75
2023-09-30T20:24:31.170Z,4.80
2023-09-30T20:26:59.110Z,5.38
2023-09-30T20:29:27.733Z,4.55
2023-09-30T20:31:55.710Z,4.65
2023-09-30T20:34:23.778Z,4.53
2023-09-30T20:36:53.854Z,4.32
2023-09-30T20:39:22.368Z,4.43
2023-09-30T20:41:51.478Z,4.53
2023-09-30T20:44:19.865Z,4.20
2023-09-30T20:46:48.626Z,4.25
2023-09-30T20:49:19.183Z,4.07
2023-09-30T20:51:47.704Z,3.80
2023-09-30T20:54:17.132Z,3.90
2023-09-30T20:56:45.575Z,4.03
2023-09-30T20:59:13.991Z,3.72
2023-09-30T21:01:42.440Z,4.30
2023-09-30T21:04:10.465Z,4.15
2023-09-30T21:06:39.077Z,4.25
2023-09-30T21:09:07.273Z,3.75
2023-09-30T21:11:37.268Z,3.72
2023-09-30T21:14:05.216Z,3.50
2023-09-30T21:16:35.498Z,3.75
2023-09-30T21:19:03.642Z,3.60
2023-09-30T21:21:31.958Z,3.72
2023-09-30T21:23:59.903Z,3.83
2023-09-30T21:26:27.852Z,3.53
2023-09-30T21:28:57.357Z,4.25
2023-09-30T21:31:25.779Z,3.55
2023-09-30T21:33:53.999Z,3.90
2023-09-30T21:36:23.384Z,4.45
2023-09-30T21:38:51.291Z,3.72
2023-09-30T21:41:20.449Z,3.30
2023-09-30T21:43:48.674Z,3.88
2023-09-30T21:46:18.132Z,3.00
2023-09-30T21:48:46.720Z,3.35
2023-09-30T21:51:14.814Z,3.38
2023-09-30T21:53:42.753Z,3.17
2023-09-30T21:56:10.661Z,3.55
2023-09-30T21:58:38.546Z,3.00
2023-09-30T22:01:10.757Z,2.55
2023-09-30T22:03:40.320Z,3.47
2023-09-30T22:06:08.414Z,2.70
2023-09-30T22:08:37.653Z,3.13
2023-09-30T22:11:05.626Z,2.92
2023-09-30T22:13:33.634Z,3.17
2023-09-30T22:16:01.720Z,2.65
2023-09-30T22:18:29.803Z,3.00
2023-09-30T22:21:00.067Z,2.83
2023-09-30T22:23:28.430Z,3.28
2023-09-30T22:25:56.385Z,3.20
2023-09-30T22:28:24.455Z,2.95
2023-09-30T22:30:55.132Z,3.70
2023-09-30T22:33:23.203Z,3.10
2023-09-30T22:35:52.335Z,2.92
2023-09-30T22:38:22.109Z,2.70
2023-09-30T22:40:50.075Z,3.70
2023-09-30T22:43:21.157Z,3.08
2023-09-30T22:45:49.249Z,3.47
2023-09-30T22:48:17.258Z,3.78
2023-09-30T22:50:45.246Z,3.30
2023-09-30T22:53:13.113Z,3.20
2023-09-30T22:55:43.073Z,3.40
2023-09-30T22:58:11.052Z,3.60
2023-09-30T23:00:39.419Z,3.45
2023-09-30T23:03:08.594Z,3.45
2023-09-30T23:05:36.590Z,3.30
2023-09-30T23:08:05.388Z,3.72
2023-09-30T23:10:33.322Z,3.92
2023-09-30T23:13:02.693Z,4.15
2023-09-30T23:15:30.780Z,3.92
2023-09-30T23:17:58.846Z,3.47
2023-09-30T23:20:27.701Z,3.88
2023-09-30T23:22:55.913Z,3.10
2023-09-30T23:25:28.027Z,3.40
2023-09-30T23:27:56.587Z,3.83
2023-09-30T23:30:27.212Z,3.30
2023-09-30T23:32:58.180Z,3.65
2023-09-30T23:35:28.694Z,3.60
2023-09-30T23:38:03.048Z,3.90
2023-09-30T23:40:33.907Z,3.83
2023-09-30T23:43:03.062Z,3.67
2023-09-30T23:45:35.675Z,3.28
2023-09-30T23:48:05.183Z,3.42
2023-09-30T23:50:35.350Z,3.63
2023-09-30T23:53:05.990Z,3.70
2023-09-30T23:55:37.765Z,3.72
2023-09-30T23:58:07.674Z,3.65
